sensor_id;sensor_type;location;lat;lon;timestamp;temperature;humidity
17954;DHT22;9102;53.548;9.926;2023-07-31T00:01:15;15.30;99.90
17954;DHT22;9102;53.548;9.926;2023-07-31T00:03:41;15.30;99.90
17954;DHT22;9102;53.548;9.926;2023-07-31T00:06:08;15.30;99.90
17954;DHT22;9102;53.548;9.926;2023-07-31T00:08:35;15.40;99.90
17954;DHT22;9102;53.548;9.926;2023-07-31T00:11:03;15.40;99.90
17954;DHT22;9102;53.548;9.926;2023-07-31T00:13:30;15.40;99.90
17954;DHT22;9102;53.548;9.926;2023-07-31T00:15:57;15.40;99.90
17954;DHT22;9102;53.548;9.926;2023-07-31T00:18:23;15.50;99.90
17954;DHT22;9102;53.548;9.926;2023-07-31T00:20:50;15.50;99.90
17954;DHT22;9102;53.548;9.926;2023-07-31T00:23:17;15.50;99.90
17954;DHT22;9102;53.548;9.926;2023-07-31T00:25:44;15.50;99.90
17954;DHT22;9102;53.548;9.926;2023-07-31T00:28:12;15.50;99.90
17954;DHT22;9102;53.548;9.926;2023-07-31T00:30:39;15.50;99.90
17954;DHT22;9102;53.548;9.926;2023-07-31T00:33:06;15.60;99.90
17954;DHT22;9102;53.548;9.926;2023-07-31T00:35:32;15.50;99.90
17954;DHT22;9102;53.548;9.926;2023-07-31T00:37:59;15.60;99.90
17954;DHT22;9102;53.548;9.926;2023-07-31T00:40:26;15.60;99.90
17954;DHT22;9102;53.548;9.926;2023-07-31T00:42:53;15.60;99.90
17954;DHT22;9102;53.548;9.926;2023-07-31T00:45:22;15.70;99.90
17954;DHT22;9102;53.548;9.926;2023-07-31T00:47:49;15.60;99.90
17954;DHT22;9102;53.548;9.926;2023-07-31T00:50:17;15.60;99.90
17954;DHT22;9102;53.548;9.926;2023-07-31T00:52:44;15.60;99.90
17954;DHT22;9102;53.548;9.926;2023-07-31T00:55:11;15.60;99.90
17954;DHT22;9102;53.548;9.926;2023-07-31T00:57:38;15.50;99.90
17954;DHT22;9102;53.548;9.926;2023-07-31T01:00:07;15.50;99.90
17954;DHT22;9102;53.548;9.926;2023-07-31T01:02:36;15.50;99.90
17954;DHT22;9102;53.548;9.926;2023-07-31T01:05:03;15.50;99.90
17954;DHT22;9102;53.548;9.926;2023-07-31T01:07:35;15.60;99.90
17954;DHT22;9102;53.548;9.926;2023-07-31T01:10:11;15.50;99.90
17954;DHT22;9102;53.548;9.926;2023-07-31T01:12:40;15.50;99.90
17954;DHT22;9102;53.548;9.926;2023-07-31T01:15:08;15.40;99.90
17954;DHT22;9102;53.548;9.926;2023-07-31T01:17:38;15.40;99.90
17954;DHT22;9102;53.548;9.926;2023-07-31T01:20:08;15.40;99.90
17954;DHT22;9102;53.548;9.926;2023-07-31T01:22:54;15.40;99.90
17954;DHT22;9102;53.548;9.926;2023-07-31T01:25:50;15.40;99.90
17954;DHT22;9102;53.548;9.926;2023-07-31T01:28:20;15.40;99.90
17954;DHT22;9102;53.548;9.926;2023-07-31T01:30:48;15.50;99.90
17954;DHT22;9102;53.548;9.926;2023-07-31T01:33:16;15.40;99.90
17954;DHT22;9102;53.548;9.926;2023-07-31T01:35:45;15.50;99.90
17954;DHT22;9102;53.548;9.926;2023-07-31T01:38:12;15.50;99.90
17954;DHT22;9102;53.548;9.926;2023-07-31T01:40:41;15.50;99.90
17954;DHT22;9102;53.548;9.926;2023-07-31T01:43:09;15.50;99.90
17954;DHT22;9102;53.548;9.926;2023-07-31T01:45:36;15.50;99.90
17954;DHT22;9102;53.548;9.926;2023-07-31T01:48:03;15.50;99.90
17954;DHT22;9102;53.548;9.926;2023-07-31T01:50:30;15.50;99.90
17954;DHT22;9102;53.548;9.926;2023-07-31T01:52:56;15.50;99.90
17954;DHT22;9102;53.548;9.926;2023-07-31T01:55:23;15.50;99.90
17954;DHT22;9102;53.548;9.926;2023-07-31T01:57:50;15.50;99.90
17954;DHT22;9102;53.548;9.926;2023-07-31T02:00:19;15.50;99.90
17954;DHT22;9102;53.548;9.926;2023-07-31T02:02:46;15.50;99.90
17954;DHT22;9102;53.548;9.926;2023-07-31T02:05:13;15.60;99.90
17954;DHT22;9102;53.548;9.926;2023-07-31T02:07:40;15.60;99.90
17954;DHT22;9102;53.548;9.926;2023-07-31T02:10:07;15.60;99.90
17954;DHT22;9102;53.548;9.926;2023-07-31T02:12:33;15.60;99.90
17954;DHT22;9102;53.548;9.926;2023-07-31T02:15:00;15.60;99.90
17954;DHT22;9102;53.548;9.926;2023-07-31T02:17:28;15.50;99.90
17954;DHT22;9102;53.548;9.926;2023-07-31T02:19:56;15.70;99.90
17954;DHT22;9102;53.548;9.926;2023-07-31T02:22:22;15.60;99.90
17954;DHT22;9102;53.548;9.926;2023-07-31T02:24:49;15.70;99.90
17954;DHT22;9102;53.548;9.926;2023-07-31T02:27:16;15.70;99.90
17954;DHT22;9102;53.548;9.926;2023-07-31T02:29:43;15.70;99.90
17954;DHT22;9102;53.548;9.926;2023-07-31T02:32:10;15.70;99.90
17954;DHT22;9102;53.548;9.926;2023-07-31T02:34:38;15.70;99.90
17954;DHT22;9102;53.548;9.926;2023-07-31T02:37:05;15.70;99.90
17954;DHT22;9102;53.548;9.926;2023-07-31T02:39:32;15.70;99.90
17954;DHT22;9102;53.548;9.926;2023-07-31T02:41:59;15.60;99.90
17954;DHT22;9102;53.548;9.926;2023-07-31T02:44:26;15.60;99.90
17954;DHT22;9102;53.548;9.926;2023-07-31T02:46:53;15.70;99.90
17954;DHT22;9102;53.548;9.926;2023-07-31T02:49:20;15.70;99.90
17954;DHT22;9102;53.548;9.926;2023-07-31T02:51:48;15.70;99.90
17954;DHT22;9102;53.548;9.926;2023-07-31T02:54:15;15.60;99.90
17954;DHT22;9102;53.548;9.926;2023-07-31T02:56:41;15.60;99.90
17954;DHT22;9102;53.548;9.926;2023-07-31T02:59:08;15.60;99.90
17954;DHT22;9102;53.548;9.926;2023-07-31T03:01:35;15.60;99.90
17954;DHT22;9102;53.548;9.926;2023-07-31T03:04:02;15.60;99.90
17954;DHT22;9102;53.548;9.926;2023-07-31T03:06:28;15.60;99.90
17954;DHT22;9102;53.548;9.926;2023-07-31T03:08:57;15.60;99.90
17954;DHT22;9102;53.548;9.926;2023-07-31T03:11:23;15.60;99.90
17954;DHT22;9102;53.548;9.926;2023-07-31T03:13:50;15.50;99.90
17954;DHT22;9102;53.548;9.926;2023-07-31T03:16:17;15.60;99.90
17954;DHT22;9102;53.548;9.926;2023-07-31T03:18:44;15.60;99.90
17954;DHT22;9102;53.548;9.926;2023-07-31T03:21:11;15.70;99.90
17954;DHT22;9102;53.548;9.926;2023-07-31T03:23:38;15.60;99.90
17954;DHT22;9102;53.548;9.926;2023-07-31T03:26:07;15.60;99.90
17954;DHT22;9102;53.548;9.926;2023-07-31T03:28:34;15.60;99.90
17954;DHT22;9102;53.548;9.926;2023-07-31T03:31:01;15.60;99.90
17954;DHT22;9102;53.548;9.926;2023-07-31T03:33:28;15.60;99.90
17954;DHT22;9102;53.548;9.926;2023-07-31T03:35:55;15.70;99.90
17954;DHT22;9102;53.548;9.926;2023-07-31T03:38:22;15.70;99.90
17954;DHT22;9102;53.548;9.926;2023-07-31T03:40:48;15.70;99.90
17954;DHT22;9102;53.548;9.926;2023-07-31T03:43:16;15.70;99.90
17954;DHT22;9102;53.548;9.926;2023-07-31T03:45:43;15.80;99.90
17954;DHT22;9102;53.548;9.926;2023-07-31T03:48:10;15.70;99.90
17954;DHT22;9102;53.548;9.926;2023-07-31T03:50:37;15.70;99.90
17954;DHT22;9102;53.548;9.926;2023-07-31T03:53:04;15.80;99.90
17954;DHT22;9102;53.548;9.926;2023-07-31T03:55:30;15.70;99.90
17954;DHT22;9102;53.548;9.926;2023-07-31T03:57:57;15.80;99.90
17954;DHT22;9102;53.548;9.926;2023-07-31T04:00:27;15.90;99.90
17954;DHT22;9102;53.548;9.926;2023-07-31T04:02:54;15.80;99.90
17954;DHT22;9102;53.548;9.926;2023-07-31T04:05:20;15.80;99.90
17954;DHT22;9102;53.548;9.926;2023-07-31T04:07:47;15.80;99.90
17954;DHT22;9102;53.548;9.926;2023-07-31T04:10:14;15.80;99.90
17954;DHT22;9102;53.548;9.926;2023-07-31T04:12:41;15.80;99.90
17954;DHT22;9102;53.548;9.926;2023-07-31T04:15:08;15.80;99.90
17954;DHT22;9102;53.548;9.926;2023-07-31T04:17:36;15.90;99.90
17954;DHT22;9102;53.548;9.926;2023-07-31T04:20:04;15.80;99.90
17954;DHT22;9102;53.548;9.926;2023-07-31T04:22:31;15.90;99.90
17954;DHT22;9102;53.548;9.926;2023-07-31T04:24:57;15.80;99.90
17954;DHT22;9102;53.548;9.926;2023-07-31T04:27:25;15.80;99.90
17954;DHT22;9102;53.548;9.926;2023-07-31T04:29:51;15.90;99.90
17954;DHT22;9102;53.548;9.926;2023-07-31T04:32:18;15.80;99.90
17954;DHT22;9102;53.548;9.926;2023-07-31T04:34:47;15.80;99.90
17954;DHT22;9102;53.548;9.926;2023-07-31T04:37:14;15.80;99.90
17954;DHT22;9102;53.548;9.926;2023-07-31T04:39:41;15.60;99.90
17954;DHT22;9102;53.548;9.926;2023-07-31T04:42:08;15.70;99.90
17954;DHT22;9102;53.548;9.926;2023-07-31T04:44:35;15.60;99.90
17954;DHT22;9102;53.548;9.926;2023-07-31T04:47:02;15.50;99.90
17954;DHT22;9102;53.548;9.926;2023-07-31T04:49:29;15.50;99.90
17954;DHT22;9102;53.548;9.926;2023-07-31T04:51:57;15.50;99.90
17954;DHT22;9102;53.548;9.926;2023-07-31T04:54:24;15.50;99.90
17954;DHT22;9102;53.548;9.926;2023-07-31T04:56:51;15.50;99.90
17954;DHT22;9102;53.548;9.926;2023-07-31T04:59:18;15.50;99.90
17954;DHT22;9102;53.548;9.926;2023-07-31T05:01:45;15.50;99.90
17954;DHT22;9102;53.548;9.926;2023-07-31T05:04:12;15.40;99.90
17954;DHT22;9102;53.548;9.926;2023-07-31T05:06:39;15.40;99.90
17954;DHT22;9102;53.548;9.926;2023-07-31T05:09:08;15.40;99.90
17954;DHT22;9102;53.548;9.926;2023-07-31T05:11:36;15.40;99.90
17954;DHT22;9102;53.548;9.926;2023-07-31T05:14:02;15.40;99.90
17954;DHT22;9102;53.548;9.926;2023-07-31T05:16:29;15.30;99.90
17954;DHT22;9102;53.548;9.926;2023-07-31T05:18:56;15.40;99.90
17954;DHT22;9102;53.548;9.926;2023-07-31T05:21:23;15.40;99.90
17954;DHT22;9102;53.548;9.926;2023-07-31T05:23:49;15.40;99.90
17954;DHT22;9102;53.548;9.926;2023-07-31T05:26:18;15.40;99.90
17954;DHT22;9102;53.548;9.926;2023-07-31T05:28:45;15.40;99.90
17954;DHT22;9102;53.548;9.926;2023-07-31T05:31:11;15.30;99.90
17954;DHT22;9102;53.548;9.926;2023-07-31T05:33:38;15.40;99.90
17954;DHT22;9102;53.548;9.926;2023-07-31T05:36:05;15.40;99.90
17954;DHT22;9102;53.548;9.926;2023-07-31T05:38:32;15.40;99.90
17954;DHT22;9102;53.548;9.926;2023-07-31T05:40:59;15.40;99.90
17954;DHT22;9102;53.548;9.926;2023-07-31T05:43:27;15.40;99.90
17954;DHT22;9102;53.548;9.926;2023-07-31T05:45:53;15.30;99.90
17954;DHT22;9102;53.548;9.926;2023-07-31T05:48:20;15.40;99.90
17954;DHT22;9102;53.548;9.926;2023-07-31T05:50:47;15.40;99.90
17954;DHT22;9102;53.548;9.926;2023-07-31T05:53:14;15.40;99.90
17954;DHT22;9102;53.548;9.926;2023-07-31T05:55:40;15.40;99.90
17954;DHT22;9102;53.548;9.926;2023-07-31T05:58:07;15.50;99.90
17954;DHT22;9102;53.548;9.926;2023-07-31T06:00:35;15.50;99.90
17954;DHT22;9102;53.548;9.926;2023-07-31T06:03:02;15.50;99.90
17954;DHT22;9102;53.548;9.926;2023-07-31T06:05:30;15.60;99.90
17954;DHT22;9102;53.548;9.926;2023-07-31T06:07:57;15.70;99.90
17954;DHT22;9102;53.548;9.926;2023-07-31T06:10:23;15.70;99.90
17954;DHT22;9102;53.548;9.926;2023-07-31T06:12:50;15.70;99.90
17954;DHT22;9102;53.548;9.926;2023-07-31T06:15:19;15.60;99.90
17954;DHT22;9102;53.548;9.926;2023-07-31T06:17:47;15.70;99.90
17954;DHT22;9102;53.548;9.926;2023-07-31T06:20:14;15.70;99.90
17954;DHT22;9102;53.548;9.926;2023-07-31T06:22:41;15.60;99.90
17954;DHT22;9102;53.548;9.926;2023-07-31T06:25:08;15.70;99.90
17954;DHT22;9102;53.548;9.926;2023-07-31T06:27:35;15.70;99.90
17954;DHT22;9102;53.548;9.926;2023-07-31T06:30:02;15.70;99.90
17954;DHT22;9102;53.548;9.926;2023-07-31T06:32:30;15.70;99.90
17954;DHT22;9102;53.548;9.926;2023-07-31T06:34:58;15.70;99.90
17954;DHT22;9102;53.548;9.926;2023-07-31T06:37:25;15.70;99.90
17954;DHT22;9102;53.548;9.926;2023-07-31T06:39:52;15.70;99.90
17954;DHT22;9102;53.548;9.926;2023-07-31T06:42:19;15.60;99.90
17954;DHT22;9102;53.548;9.926;2023-07-31T06:44:45;15.80;99.90
17954;DHT22;9102;53.548;9.926;2023-07-31T06:47:12;15.70;99.90
17954;DHT22;9102;53.548;9.926;2023-07-31T06:49:39;15.70;99.90
17954;DHT22;9102;53.548;9.926;2023-07-31T06:52:07;15.70;99.90
17954;DHT22;9102;53.548;9.926;2023-07-31T06:54:35;15.80;99.90
17954;DHT22;9102;53.548;9.926;2023-07-31T06:57:02;15.90;99.90
17954;DHT22;9102;53.548;9.926;2023-07-31T06:59:29;15.80;99.90
17954;DHT22;9102;53.548;9.926;2023-07-31T07:01:56;15.80;99.90
17954;DHT22;9102;53.548;9.926;2023-07-31T07:04:22;15.90;99.90
17954;DHT22;9102;53.548;9.926;2023-07-31T07:06:49;15.80;99.90
17954;DHT22;9102;53.548;9.926;2023-07-31T07:09:17;15.90;99.90
17954;DHT22;9102;53.548;9.926;2023-07-31T07:11:45;16.00;99.90
17954;DHT22;9102;53.548;9.926;2023-07-31T07:14:11;15.80;99.90
17954;DHT22;9102;53.548;9.926;2023-07-31T07:16:38;15.80;99.90
17954;DHT22;9102;53.548;9.926;2023-07-31T07:19:06;15.80;99.90
17954;DHT22;9102;53.548;9.926;2023-07-31T07:21:33;15.80;99.90
17954;DHT22;9102;53.548;9.926;2023-07-31T07:24:00;15.80;99.90
17954;DHT22;9102;53.548;9.926;2023-07-31T07:26:28;15.80;99.90
17954;DHT22;9102;53.548;9.926;2023-07-31T07:28:55;15.80;99.90
17954;DHT22;9102;53.548;9.926;2023-07-31T07:31:23;15.80;99.90
17954;DHT22;9102;53.548;9.926;2023-07-31T07:33:50;15.80;99.90
17954;DHT22;9102;53.548;9.926;2023-07-31T07:36:16;15.80;99.90
17954;DHT22;9102;53.548;9.926;2023-07-31T07:38:43;15.80;99.90
17954;DHT22;9102;53.548;9.926;2023-07-31T07:41:10;16.00;99.90
17954;DHT22;9102;53.548;9.926;2023-07-31T07:43:38;15.90;99.90
17954;DHT22;9102;53.548;9.926;2023-07-31T07:46:05;15.90;99.90
17954;DHT22;9102;53.548;9.926;2023-07-31T07:48:32;16.00;99.90
17954;DHT22;9102;53.548;9.926;2023-07-31T07:50:59;16.00;99.90
17954;DHT22;9102;53.548;9.926;2023-07-31T07:53:25;16.00;99.90
17954;DHT22;9102;53.548;9.926;2023-07-31T07:55:52;16.00;99.90
17954;DHT22;9102;53.548;9.926;2023-07-31T07:58:19;16.00;99.90
17954;DHT22;9102;53.548;9.926;2023-07-31T08:00:50;16.10;99.90
17954;DHT22;9102;53.548;9.926;2023-07-31T08:03:17;16.30;99.90
17954;DHT22;9102;53.548;9.926;2023-07-31T08:05:44;16.40;99.90
17954;DHT22;9102;53.548;9.926;2023-07-31T08:08:14;16.50;99.90
17954;DHT22;9102;53.548;9.926;2023-07-31T08:10:41;16.50;99.90
17954;DHT22;9102;53.548;9.926;2023-07-31T08:13:09;16.60;99.90
17954;DHT22;9102;53.548;9.926;2023-07-31T08:15:36;16.70;99.90
17954;DHT22;9102;53.548;9.926;2023-07-31T08:18:04;16.70;99.90
17954;DHT22;9102;53.548;9.926;2023-07-31T08:20:31;16.70;99.90
17954;DHT22;9102;53.548;9.926;2023-07-31T08:22:58;16.70;99.90
17954;DHT22;9102;53.548;9.926;2023-07-31T08:25:27;16.80;99.90
17954;DHT22;9102;53.548;9.926;2023-07-31T08:27:58;16.90;99.90
17954;DHT22;9102;53.548;9.926;2023-07-31T08:30:25;17.10;99.90
17954;DHT22;9102;53.548;9.926;2023-07-31T08:32:51;17.20;99.90
17954;DHT22;9102;53.548;9.926;2023-07-31T08:35:20;17.30;99.90
17954;DHT22;9102;53.548;9.926;2023-07-31T08:37:46;17.20;99.90
17954;DHT22;9102;53.548;9.926;2023-07-31T08:40:13;17.20;99.90
17954;DHT22;9102;53.548;9.926;2023-07-31T08:42:44;17.20;99.90
17954;DHT22;9102;53.548;9.926;2023-07-31T08:45:14;17.30;99.90
17954;DHT22;9102;53.548;9.926;2023-07-31T08:47:44;17.20;99.90
17954;DHT22;9102;53.548;9.926;2023-07-31T08:50:12;17.40;99.90
17954;DHT22;9102;53.548;9.926;2023-07-31T08:52:40;17.40;99.90
17954;DHT22;9102;53.548;9.926;2023-07-31T08:55:08;17.40;99.90
17954;DHT22;9102;53.548;9.926;2023-07-31T08:57:36;17.50;99.90
17954;DHT22;9102;53.548;9.926;2023-07-31T09:00:04;17.60;99.90
17954;DHT22;9102;53.548;9.926;2023-07-31T09:02:37;17.50;99.90
17954;DHT22;9102;53.548;9.926;2023-07-31T09:05:06;17.50;99.90
17954;DHT22;9102;53.548;9.926;2023-07-31T09:07:34;17.30;99.90
17954;DHT22;9102;53.548;9.926;2023-07-31T09:10:04;17.30;99.90
17954;DHT22;9102;53.548;9.926;2023-07-31T09:12:31;17.30;99.90
17954;DHT22;9102;53.548;9.926;2023-07-31T09:14:58;17.10;99.90
17954;DHT22;9102;53.548;9.926;2023-07-31T09:17:32;17.20;99.90
17954;DHT22;9102;53.548;9.926;2023-07-31T09:20:13;17.30;99.90
17954;DHT22;9102;53.548;9.926;2023-07-31T09:22:40;17.30;99.90
17954;DHT22;9102;53.548;9.926;2023-07-31T09:25:20;17.20;99.90
17954;DHT22;9102;53.548;9.926;2023-07-31T09:27:48;17.20;99.90
17954;DHT22;9102;53.548;9.926;2023-07-31T09:30:16;17.10;99.90
17954;DHT22;9102;53.548;9.926;2023-07-31T09:32:43;17.10;99.90
17954;DHT22;9102;53.548;9.926;2023-07-31T09:35:19;17.10;99.90
17954;DHT22;9102;53.548;9.926;2023-07-31T09:37:49;17.10;99.90
17954;DHT22;9102;53.548;9.926;2023-07-31T09:40:30;17.00;99.90
17954;DHT22;9102;53.548;9.926;2023-07-31T09:42:58;17.20;99.90
17954;DHT22;9102;53.548;9.926;2023-07-31T09:45:25;17.20;99.90
17954;DHT22;9102;53.548;9.926;2023-07-31T09:47:52;17.10;99.90
17954;DHT22;9102;53.548;9.926;2023-07-31T09:50:20;17.20;99.90
17954;DHT22;9102;53.548;9.926;2023-07-31T09:52:48;17.30;99.90
17954;DHT22;9102;53.548;9.926;2023-07-31T09:55:14;17.30;99.90
17954;DHT22;9102;53.548;9.926;2023-07-31T09:57:45;17.30;99.90
17954;DHT22;9102;53.548;9.926;2023-07-31T10:00:13;17.30;99.90
17954;DHT22;9102;53.548;9.926;2023-07-31T10:02:41;17.30;99.90
17954;DHT22;9102;53.548;9.926;2023-07-31T10:05:08;17.40;99.90
17954;DHT22;9102;53.548;9.926;2023-07-31T10:07:37;17.50;99.90
17954;DHT22;9102;53.548;9.926;2023-07-31T10:10:07;17.50;99.90
17954;DHT22;9102;53.548;9.926;2023-07-31T10:12:35;17.50;99.90
17954;DHT22;9102;53.548;9.926;2023-07-31T10:15:04;17.50;99.90
17954;DHT22;9102;53.548;9.926;2023-07-31T10:17:33;17.50;99.90
17954;DHT22;9102;53.548;9.926;2023-07-31T10:20:02;17.40;99.90
17954;DHT22;9102;53.548;9.926;2023-07-31T10:22:30;17.00;99.90
17954;DHT22;9102;53.548;9.926;2023-07-31T10:24:58;17.00;99.90
17954;DHT22;9102;53.548;9.926;2023-07-31T10:27:26;17.00;99.90
17954;DHT22;9102;53.548;9.926;2023-07-31T10:29:55;17.00;99.90
17954;DHT22;9102;53.548;9.926;2023-07-31T10:32:24;17.00;99.90
17954;DHT22;9102;53.548;9.926;2023-07-31T10:34:51;17.10;99.90
17954;DHT22;9102;53.548;9.926;2023-07-31T10:37:25;17.00;99.90
17954;DHT22;9102;53.548;9.926;2023-07-31T10:40:00;17.00;99.90
17954;DHT22;9102;53.548;9.926;2023-07-31T10:42:32;16.90;99.90
17954;DHT22;9102;53.548;9.926;2023-07-31T10:45:01;16.70;99.90
17954;DHT22;9102;53.548;9.926;2023-07-31T10:47:30;16.60;99.90
17954;DHT22;9102;53.548;9.926;2023-07-31T10:50:16;16.60;99.90
17954;DHT22;9102;53.548;9.926;2023-07-31T10:52:46;16.60;99.90
17954;DHT22;9102;53.548;9.926;2023-07-31T10:55:33;16.50;99.90
17954;DHT22;9102;53.548;9.926;2023-07-31T10:58:06;16.60;99.90
17954;DHT22;9102;53.548;9.926;2023-07-31T11:00:33;16.60;99.90
17954;DHT22;9102;53.548;9.926;2023-07-31T11:03:06;16.60;99.90
17954;DHT22;9102;53.548;9.926;2023-07-31T11:05:43;16.70;99.90
17954;DHT22;9102;53.548;9.926;2023-07-31T11:08:15;16.70;99.90
17954;DHT22;9102;53.548;9.926;2023-07-31T11:10:43;16.80;99.90
17954;DHT22;9102;53.548;9.926;2023-07-31T11:13:10;16.90;99.90
17954;DHT22;9102;53.548;9.926;2023-07-31T11:15:37;17.10;99.90
17954;DHT22;9102;53.548;9.926;2023-07-31T11:18:06;17.10;99.90
17954;DHT22;9102;53.548;9.926;2023-07-31T11:20:35;17.10;99.90
17954;DHT22;9102;53.548;9.926;2023-07-31T11:23:05;17.10;99.90
17954;DHT22;9102;53.548;9.926;2023-07-31T11:25:32;17.10;99.90
17954;DHT22;9102;53.548;9.926;2023-07-31T11:28:03;17.00;99.90
17954;DHT22;9102;53.548;9.926;2023-07-31T11:30:30;16.90;99.90
17954;DHT22;9102;53.548;9.926;2023-07-31T11:32:57;17.00;99.90
17954;DHT22;9102;53.548;9.926;2023-07-31T11:35:48;17.00;99.90
17954;DHT22;9102;53.548;9.926;2023-07-31T11:38:21;17.00;99.90
17954;DHT22;9102;53.548;9.926;2023-07-31T11:40:49;17.00;99.90
17954;DHT22;9102;53.548;9.926;2023-07-31T11:43:16;17.00;99.90
17954;DHT22;9102;53.548;9.926;2023-07-31T11:45:46;17.00;99.90
17954;DHT22;9102;53.548;9.926;2023-07-31T11:48:19;17.10;99.90
17954;DHT22;9102;53.548;9.926;2023-07-31T11:50:47;17.00;99.90
17954;DHT22;9102;53.548;9.926;2023-07-31T11:53:16;16.90;99.90
17954;DHT22;9102;53.548;9.926;2023-07-31T11:55:44;16.70;99.90
17954;DHT22;9102;53.548;9.926;2023-07-31T11:58:12;16.50;99.90
17954;DHT22;9102;53.548;9.926;2023-07-31T12:00:40;16.40;99.90
17954;DHT22;9102;53.548;9.926;2023-07-31T12:03:07;16.30;99.90
17954;DHT22;9102;53.548;9.926;2023-07-31T12:05:34;16.30;99.90
17954;DHT22;9102;53.548;9.926;2023-07-31T12:08:08;16.20;99.90
17954;DHT22;9102;53.548;9.926;2023-07-31T12:10:36;16.30;99.90
17954;DHT22;9102;53.548;9.926;2023-07-31T12:13:04;16.30;99.90
17954;DHT22;9102;53.548;9.926;2023-07-31T12:15:39;16.20;99.90
17954;DHT22;9102;53.548;9.926;2023-07-31T12:18:08;16.10;99.90
17954;DHT22;9102;53.548;9.926;2023-07-31T12:20:39;16.10;99.90
17954;DHT22;9102;53.548;9.926;2023-07-31T12:23:13;16.00;99.90
17954;DHT22;9102;53.548;9.926;2023-07-31T12:25:40;16.00;99.90
17954;DHT22;9102;53.548;9.926;2023-07-31T12:28:07;16.00;99.90
17954;DHT22;9102;53.548;9.926;2023-07-31T12:30:38;16.00;99.90
17954;DHT22;9102;53.548;9.926;2023-07-31T12:33:06;16.00;99.90
17954;DHT22;9102;53.548;9.926;2023-07-31T12:35:42;16.20;99.90
17954;DHT22;9102;53.548;9.926;2023-07-31T12:38:11;16.10;99.90
17954;DHT22;9102;53.548;9.926;2023-07-31T12:40:39;16.00;99.90
17954;DHT22;9102;53.548;9.926;2023-07-31T12:43:06;16.20;99.90
17954;DHT22;9102;53.548;9.926;2023-07-31T12:45:34;16.10;99.90
17954;DHT22;9102;53.548;9.926;2023-07-31T12:48:03;16.10;99.90
17954;DHT22;9102;53.548;9.926;2023-07-31T12:50:29;16.20;99.90
17954;DHT22;9102;53.548;9.926;2023-07-31T12:52:57;16.20;99.90
17954;DHT22;9102;53.548;9.926;2023-07-31T12:55:26;16.30;99.90
17954;DHT22;9102;53.548;9.926;2023-07-31T12:57:52;16.40;99.90
17954;DHT22;9102;53.548;9.926;2023-07-31T13:00:19;16.30;99.90
17954;DHT22;9102;53.548;9.926;2023-07-31T13:02:46;16.40;99.90
17954;DHT22;9102;53.548;9.926;2023-07-31T13:05:13;16.40;99.90
17954;DHT22;9102;53.548;9.926;2023-07-31T13:07:40;16.40;99.90
17954;DHT22;9102;53.548;9.926;2023-07-31T13:10:08;16.20;99.90
17954;DHT22;9102;53.548;9.926;2023-07-31T13:12:36;16.10;99.90
17954;DHT22;9102;53.548;9.926;2023-07-31T13:15:04;16.00;99.90
17954;DHT22;9102;53.548;9.926;2023-07-31T13:17:31;16.00;99.90
17954;DHT22;9102;53.548;9.926;2023-07-31T13:19:57;16.00;99.90
17954;DHT22;9102;53.548;9.926;2023-07-31T13:22:24;16.10;99.90
17954;DHT22;9102;53.548;9.926;2023-07-31T13:24:51;16.20;99.90
17954;DHT22;9102;53.548;9.926;2023-07-31T13:27:18;16.30;99.90
17954;DHT22;9102;53.548;9.926;2023-07-31T13:29:48;16.40;99.90
17954;DHT22;9102;53.548;9.926;2023-07-31T13:32:16;16.50;99.90
17954;DHT22;9102;53.548;9.926;2023-07-31T13:34:43;16.60;99.90
17954;DHT22;9102;53.548;9.926;2023-07-31T13:37:10;16.60;99.90
17954;DHT22;9102;53.548;9.926;2023-07-31T13:39:36;16.70;99.90
17954;DHT22;9102;53.548;9.926;2023-07-31T13:42:04;16.70;99.90
17954;DHT22;9102;53.548;9.926;2023-07-31T13:44:32;16.80;99.90
17954;DHT22;9102;53.548;9.926;2023-07-31T13:47:00;17.00;99.90
17954;DHT22;9102;53.548;9.926;2023-07-31T13:49:27;17.00;99.90
17954;DHT22;9102;53.548;9.926;2023-07-31T13:51:54;17.20;99.90
17954;DHT22;9102;53.548;9.926;2023-07-31T13:54:22;17.10;99.90
17954;DHT22;9102;53.548;9.926;2023-07-31T13:56:49;17.20;99.90
17954;DHT22;9102;53.548;9.926;2023-07-31T13:59:16;17.20;99.90
17954;DHT22;9102;53.548;9.926;2023-07-31T14:01:43;17.30;99.90
17954;DHT22;9102;53.548;9.926;2023-07-31T14:04:12;17.50;99.90
17954;DHT22;9102;53.548;9.926;2023-07-31T14:06:39;17.70;99.90
17954;DHT22;9102;53.548;9.926;2023-07-31T14:09:05;17.70;99.90
17954;DHT22;9102;53.548;9.926;2023-07-31T14:11:32;17.70;99.90
17954;DHT22;9102;53.548;9.926;2023-07-31T14:13:59;17.80;99.90
17954;DHT22;9102;53.548;9.926;2023-07-31T14:16:27;17.80;99.90
17954;DHT22;9102;53.548;9.926;2023-07-31T14:18:54;17.80;99.90
17954;DHT22;9102;53.548;9.926;2023-07-31T14:21:22;17.70;99.90
17954;DHT22;9102;53.548;9.926;2023-07-31T14:23:49;17.70;99.90
17954;DHT22;9102;53.548;9.926;2023-07-31T14:26:16;17.60;99.90
17954;DHT22;9102;53.548;9.926;2023-07-31T14:28:43;17.70;99.90
17954;DHT22;9102;53.548;9.926;2023-07-31T14:31:10;17.60;99.90
17954;DHT22;9102;53.548;9.926;2023-07-31T14:33:40;17.70;99.90
17954;DHT22;9102;53.548;9.926;2023-07-31T14:36:07;17.60;99.90
17954;DHT22;9102;53.548;9.926;2023-07-31T14:38:35;17.60;99.90
17954;DHT22;9102;53.548;9.926;2023-07-31T14:41:02;17.60;99.90
17954;DHT22;9102;53.548;9.926;2023-07-31T14:43:29;17.60;99.90
17954;DHT22;9102;53.548;9.926;2023-07-31T14:46:01;17.60;99.90
17954;DHT22;9102;53.548;9.926;2023-07-31T14:48:27;17.60;99.90
17954;DHT22;9102;53.548;9.926;2023-07-31T14:50:54;17.60;99.90
17954;DHT22;9102;53.548;9.926;2023-07-31T14:53:21;17.60;99.90
17954;DHT22;9102;53.548;9.926;2023-07-31T14:55:50;17.60;99.90
17954;DHT22;9102;53.548;9.926;2023-07-31T14:58:16;17.60;99.90
17954;DHT22;9102;53.548;9.926;2023-07-31T15:00:43;17.60;99.90
17954;DHT22;9102;53.548;9.926;2023-07-31T15:03:10;17.60;99.90
17954;DHT22;9102;53.548;9.926;2023-07-31T15:05:37;17.70;99.90
17954;DHT22;9102;53.548;9.926;2023-07-31T15:08:04;17.60;99.90
17954;DHT22;9102;53.548;9.926;2023-07-31T15:10:31;17.70;99.90
17954;DHT22;9102;53.548;9.926;2023-07-31T15:13:00;17.70;99.90
17954;DHT22;9102;53.548;9.926;2023-07-31T15:15:27;17.70;99.90
17954;DHT22;9102;53.548;9.926;2023-07-31T15:17:54;17.70;99.90
17954;DHT22;9102;53.548;9.926;2023-07-31T15:20:22;17.70;99.90
17954;DHT22;9102;53.548;9.926;2023-07-31T15:22:49;17.70;99.90
17954;DHT22;9102;53.548;9.926;2023-07-31T15:25:16;17.70;99.90
17954;DHT22;9102;53.548;9.926;2023-07-31T15:27:43;17.80;99.90
17954;DHT22;9102;53.548;9.926;2023-07-31T15:30:11;17.80;99.90
17954;DHT22;9102;53.548;9.926;2023-07-31T15:32:38;17.90;99.90
17954;DHT22;9102;53.548;9.926;2023-07-31T15:35:06;17.80;99.90
17954;DHT22;9102;53.548;9.926;2023-07-31T15:37:33;17.80;99.90
17954;DHT22;9102;53.548;9.926;2023-07-31T15:40:00;17.70;99.90
17954;DHT22;9102;53.548;9.926;2023-07-31T15:42:32;17.70;99.90
17954;DHT22;9102;53.548;9.926;2023-07-31T15:45:04;17.70;99.90
17954;DHT22;9102;53.548;9.926;2023-07-31T15:47:35;17.70;99.90
17954;DHT22;9102;53.548;9.926;2023-07-31T15:50:02;17.60;99.90